createdAt,value
2022-09-10T00:01:51.157Z,8.70
2022-09-10T00:06:54.054Z,7.10
2022-09-10T00:11:58.147Z,8.80
2022-09-10T00:17:00.937Z,10.18
2022-09-10T00:22:03.866Z,8.35
2022-09-10T00:27:09.169Z,10.90
2022-09-10T00:32:11.868Z,9.98
2022-09-10T00:37:14.726Z,12.10
2022-09-10T00:42:18.974Z,9.90
2022-09-10T00:47:25.346Z,11.37
2022-09-10T00:52:29.374Z,10.10
2022-09-10T00:57:33.669Z,10.82
2022-09-10T01:02:37.002Z,11.53
2022-09-10T01:07:40.299Z,12.65
2022-09-10T01:13:11.030Z,12.90
2022-09-10T01:18:25.986Z,12.37
2022-09-10T01:23:49.572Z,11.45
2022-09-10T01:30:08.904Z,11.73
2022-09-10T01:50:09.068Z,11.75
2022-09-10T03:05:21.148Z,13.13
2022-09-10T03:10:24.910Z,14.13
2022-09-10T03:15:28.523Z,13.02
2022-09-10T03:20:32.607Z,13.65
2022-09-10T03:25:35.360Z,13.10
2022-09-10T03:30:40.440Z,10.18
2022-09-10T03:35:44.506Z,9.88
2022-09-10T03:40:47.290Z,10.57
2022-09-10T03:45:50.274Z,11.05
2022-09-10T03:50:54.752Z,10.48
2022-09-10T03:55:58.414Z,10.33
2022-09-10T04:01:01.998Z,12.60
2022-09-10T04:06:06.409Z,9.93
2022-09-10T04:11:09.124Z,9.88
2022-09-10T04:16:12.164Z,9.90
2022-09-10T04:21:16.333Z,11.15
2022-09-10T04:26:20.416Z,9.43
2022-09-10T04:31:23.400Z,11.83
2022-09-10T04:36:27.548Z,11.43
2022-09-10T04:41:30.266Z,11.05
2022-09-10T04:46:32.991Z,12.20
2022-09-10T04:51:37.048Z,7.93
2022-09-10T04:56:39.776Z,8.00
2022-09-10T05:01:42.484Z,12.70
2022-09-10T05:06:47.539Z,15.37
2022-09-10T05:11:50.520Z,12.95
2022-09-10T05:16:53.579Z,17.50
2022-09-10T05:21:57.712Z,16.13
2022-09-10T05:27:00.419Z,18.05
2022-09-10T05:32:03.668Z,20.85
2022-09-10T05:37:08.819Z,16.17
2022-09-10T05:42:11.511Z,13.67
2022-09-10T05:47:14.239Z,12.93
2022-09-10T05:52:18.345Z,15.05
2022-09-10T05:57:21.100Z,12.23
2022-09-10T06:02:24.387Z,14.77
2022-09-10T06:07:30.088Z,18.48
2022-09-10T06:12:34.156Z,19.77
2022-09-10T06:17:38.179Z,17.83
2022-09-10T06:22:42.332Z,17.17
2022-09-10T06:27:45.145Z,15.97
2022-09-10T06:32:47.835Z,18.33
2022-09-10T06:37:51.933Z,14.48
2022-09-10T06:42:55.159Z,13.10
2022-09-10T06:53:22.972Z,15.50
2022-09-10T06:58:25.700Z,13.40
2022-09-10T07:03:28.419Z,12.97
2022-09-10T07:08:32.508Z,9.93
2022-09-10T07:13:36.308Z,10.05
2022-09-10T07:18:39.271Z,12.20
2022-09-10T07:23:44.153Z,7.57
2022-09-10T07:28:47.466Z,10.45
2022-09-10T07:33:50.834Z,8.18
2022-09-10T07:38:57.568Z,7.73
2022-09-10T07:44:00.892Z,8.13
2022-09-10T07:49:04.964Z,7.07
2022-09-10T07:54:09.069Z,8.63
2022-09-10T07:59:13.155Z,9.77
2022-09-10T08:04:16.208Z,6.47
2022-09-10T08:09:20.379Z,6.00
2022-09-10T08:14:23.084Z,5.93
2022-09-10T08:19:26.052Z,7.03
2022-09-10T08:24:30.865Z,8.38
2022-09-10T08:29:34.962Z,6.70
2022-09-10T08:34:37.664Z,8.18
2022-09-10T08:39:41.813Z,9.45
2022-09-10T08:44:50.038Z,7.43
2022-09-10T08:49:56.803Z,7.85
2022-09-10T08:55:10.114Z,7.55
2022-09-10T09:00:16.700Z,8.60
2022-09-10T09:05:21.768Z,8.17
2022-09-10T09:10:44.227Z,7.70
2022-09-10T09:15:55.354Z,6.90
2022-09-10T09:21:01.069Z,6.67
2022-09-10T09:26:11.668Z,6.28
2022-09-10T09:31:18.189Z,6.20
2022-09-10T09:36:30.459Z,7.73
2022-09-10T09:41:43.326Z,7.07
2022-09-10T09:46:46.052Z,6.53
2022-09-10T09:51:51.792Z,5.83
2022-09-10T09:56:59.972Z,6.20
2022-09-10T10:02:10.646Z,5.72
2022-09-10T10:07:13.483Z,5.60
2022-09-10T10:12:23.203Z,6.93
2022-09-10T10:17:33.472Z,5.90
2022-09-10T10:22:37.465Z,5.60
2022-09-10T10:27:45.392Z,6.57
2022-09-10T10:32:52.627Z,7.13
2022-09-10T10:38:20.776Z,7.25
2022-09-10T10:43:36.133Z,7.10
2022-09-10T10:48:52.646Z,5.13
2022-09-10T10:54:06.495Z,6.75
2022-09-10T10:59:24.836Z,6.20
2022-09-10T11:04:35.116Z,7.03
2022-09-10T11:09:43.830Z,7.20
2022-09-10T11:14:51.558Z,7.78
2022-09-10T11:20:26.714Z,5.80
2022-09-10T11:25:29.473Z,7.90
2022-09-10T11:30:35.466Z,7.75
2022-09-10T11:35:44.042Z,7.07
2022-09-10T11:40:52.262Z,6.87
2022-09-10T11:46:01.068Z,7.03
2022-09-10T11:51:11.918Z,6.03
2022-09-10T11:56:47.023Z,6.47
2022-09-10T12:02:10.667Z,8.48
2022-09-10T12:07:26.715Z,6.88
2022-09-10T12:12:39.351Z,7.30
2022-09-10T12:17:46.170Z,6.20
2022-09-10T12:22:55.379Z,5.32
2022-09-10T12:27:59.946Z,6.60
2022-09-10T12:33:33.921Z,6.73
2022-09-10T12:38:56.977Z,6.50
2022-09-10T12:44:00.817Z,5.72
2022-09-10T12:49:12.943Z,7.73
2022-09-10T12:54:37.162Z,5.22
2022-09-10T13:00:23.002Z,6.43
2022-09-10T13:05:33.156Z,5.80
2022-09-10T13:10:36.965Z,7.30
2022-09-10T13:15:41.645Z,7.95
2022-09-10T13:20:45.742Z,7.03
2022-09-10T13:25:49.853Z,7.53
2022-09-10T13:31:01.683Z,9.20
2022-09-10T13:36:20.783Z,7.90
2022-09-10T13:41:49.479Z,7.93
2022-09-10T13:46:55.555Z,9.57
2022-09-10T13:52:02.814Z,11.18
2022-09-10T13:57:15.866Z,13.53
2022-09-10T14:02:21.027Z,9.02
2022-09-10T14:07:29.065Z,11.38
2022-09-10T14:12:35.836Z,8.30
2022-09-10T14:17:43.064Z,11.70
2022-09-10T14:22:47.270Z,10.63
2022-09-10T14:27:55.145Z,11.27
2022-09-10T14:33:26.353Z,11.47
2022-09-10T14:38:35.246Z,10.65
2022-09-10T14:43:40.383Z,13.77
2022-09-10T14:49:04.341Z,16.17
2022-09-10T14:54:10.638Z,15.77
2022-09-10T14:59:16.994Z,15.55
2022-09-10T15:04:23.592Z,15.23
2022-09-10T15:09:29.454Z,16.50
2022-09-10T15:14:33.396Z,18.05
2022-09-10T15:19:36.144Z,16.45
2022-09-10T15:25:05.624Z,18.80
2022-09-10T15:30:03.298Z,19.95
2022-09-10T15:35:07.646Z,22.52
2022-09-10T15:40:12.579Z,20.23
2022-09-10T15:45:15.483Z,19.52
2022-09-10T15:50:18.427Z,22.23
2022-09-10T15:55:22.540Z,19.40
2022-09-10T16:00:25.232Z,20.03
2022-09-10T16:05:28.605Z,23.17
2022-09-10T16:10:33.265Z,23.23
2022-09-10T16:15:37.921Z,24.23
2022-09-10T16:20:40.649Z,22.20
2022-09-10T16:25:52.843Z,22.60
2022-09-10T16:30:55.972Z,23.53
2022-09-10T16:35:58.696Z,22.60
2022-09-10T16:41:03.664Z,23.77
2022-09-10T16:46:09.257Z,25.20
2022-09-10T16:51:14.367Z,21.77
2022-09-10T16:56:18.614Z,23.55
2022-09-10T17:01:21.808Z,23.95
2022-09-10T17:06:26.291Z,26.77
2022-09-10T17:11:32.692Z,28.00
2022-09-10T17:16:37.679Z,31.02
2022-09-10T17:21:42.143Z,35.70
2022-09-10T17:26:46.995Z,35.90
2022-09-10T17:31:51.318Z,36.78
2022-09-10T17:36:54.094Z,35.57
2022-09-10T17:41:58.833Z,43.07
2022-09-10T17:47:01.528Z,40.53
2022-09-10T17:52:04.985Z,39.10
2022-09-10T17:57:09.096Z,34.00
2022-09-10T18:02:15.286Z,36.58
2022-09-10T18:07:18.261Z,35.60
2022-09-10T18:12:22.343Z,40.70
2022-09-10T18:17:25.027Z,42.25
2022-09-10T18:22:28.201Z,39.42
2022-09-10T18:27:32.311Z,35.60
2022-09-10T18:32:35.281Z,19.97
2022-09-10T18:37:39.228Z,10.88
2022-09-10T18:42:46.606Z,12.50
2022-09-10T18:47:49.856Z,11.00
2022-09-10T18:52:53.460Z,12.07
2022-09-10T18:57:57.516Z,8.43
2022-09-10T19:03:00.208Z,6.77
2022-09-10T19:08:03.407Z,8.57
2022-09-10T19:13:07.705Z,7.38
2022-09-10T19:18:10.421Z,6.60
2022-09-10T19:23:13.178Z,7.90
2022-09-10T19:28:17.236Z,6.80
2022-09-10T19:33:21.340Z,8.82
2022-09-10T19:38:37.051Z,7.73
2022-09-10T19:43:42.724Z,8.23
2022-09-10T19:48:46.574Z,7.97
2022-09-10T19:53:50.439Z,7.67
2022-09-10T19:58:56.648Z,9.05
2022-09-10T20:04:02.053Z,7.35
2022-09-10T20:09:06.323Z,8.10
2022-09-10T20:14:13.346Z,11.03
2022-09-10T20:19:18.724Z,10.35
2022-09-10T20:24:22.147Z,11.98
2022-09-10T20:29:26.397Z,14.73
2022-09-10T20:34:29.157Z,17.38
2022-09-10T20:39:31.916Z,21.00
2022-09-10T20:44:36.607Z,16.17
2022-09-10T20:49:39.319Z,23.00
2022-09-10T20:54:42.054Z,23.98
2022-09-10T20:59:46.139Z,26.17
2022-09-10T21:04:48.834Z,26.13
2022-09-10T21:09:51.546Z,22.50
2022-09-10T21:14:55.640Z,23.70
2022-09-10T21:19:58.327Z,24.53
2022-09-10T21:25:01.063Z,25.50
2022-09-10T21:30:05.961Z,23.80
2022-09-10T21:35:09.298Z,26.17
2022-09-10T21:40:12.521Z,33.70
2022-09-10T21:45:17.830Z,30.20
2022-09-10T21:50:20.545Z,26.60
2022-09-10T21:55:23.285Z,30.43
2022-09-10T22:00:28.070Z,25.83
2022-09-10T22:05:30.882Z,29.80
2022-09-10T22:10:33.762Z,29.23
2022-09-10T22:15:40.766Z,28.77
2022-09-10T22:20:43.578Z,28.58
2022-09-10T22:25:46.263Z,28.83
2022-09-10T22:30:50.344Z,29.15
2022-09-10T22:35:55.221Z,32.83
2022-09-10T22:40:57.933Z,36.90
2022-09-10T22:46:02.156Z,30.80
2022-09-10T22:51:05.573Z,34.28
2022-09-10T22:56:09.070Z,35.97
2022-09-10T23:01:14.761Z,31.70
2022-09-10T23:06:19.481Z,31.92
2022-09-10T23:11:24.021Z,33.33
2022-09-10T23:16:31.755Z,30.83
2022-09-10T23:21:35.982Z,30.17
2022-09-10T23:26:38.674Z,25.55
2022-09-10T23:31:42.734Z,30.97
2022-09-10T23:36:46.904Z,32.03
2022-09-10T23:41:49.934Z,32.42
2022-09-10T23:46:55.492Z,28.00
2022-09-10T23:51:58.227Z,31.23
2022-09-10T23:57:02.755Z,102.93
